Time;durP1;ratioP1;P1;durP2;ratioP2;P2;SDS_P1;SDS_P2;PMS_P1;PMS_P2;Temp;Humidity;BMP_temperature;BMP_pressure;BME280_temperature;BME280_humidity;BME280_pressure;Samples;Min_cycle;Max_cycle;Signal;HPM_P1;HPM_P2
2020/12/06 00:01:20;;;;;;;86.68;37.40;;;-1.40;99.90;;;;;;5014276;28;20026;-76
2020/12/06 00:03:46;;;;;;;82.03;35.75;;;-1.40;99.90;;;;;;5014394;28;20372;-77
2020/12/06 00:06:12;;;;;;;75.63;33.35;;;-1.50;99.90;;;;;;5014110;28;20036;-77
2020/12/06 00:08:38;;;;;;;72.18;32.80;;;-1.50;99.90;;;;;;5032002;28;20026;-77
2020/12/06 00:11:08;;;;;;;76.97;34.15;;;-1.50;99.90;;;;;;5014247;28;20075;-77
2020/12/06 00:13:33;;;;;;;73.20;32.13;;;-1.50;99.90;;;;;;5014211;28;20398;-77
2020/12/06 00:15:59;;;;;;;66.53;32.22;;;-1.50;99.90;;;;;;5031712;28;20021;-77
2020/12/06 00:18:24;;;;;;;71.18;33.25;;;-1.50;99.90;;;;;;5014050;28;20083;-76
2020/12/06 00:20:50;;;;;;;76.07;31.73;;;-1.50;99.90;;;;;;5013981;28;20036;-77
2020/12/06 00:23:20;;;;;;;81.07;34.58;;;-1.50;99.90;;;;;;5032135;28;20393;-77
2020/12/06 00:25:50;;;;;;;74.63;32.88;;;-1.50;99.90;;;;;;5031345;28;20367;-77
2020/12/06 00:28:16;;;;;;;70.07;32.42;;;-1.50;99.90;;;;;;5031605;28;20044;-77
2020/12/06 00:30:42;;;;;;;69.65;34.55;;;-1.50;99.90;;;;;;5031732;28;20017;-77
2020/12/06 00:33:08;;;;;;;75.15;34.28;;;-1.50;99.90;;;;;;5014678;28;20025;-77
2020/12/06 00:35:34;;;;;;;75.53;32.72;;;-1.50;99.90;;;;;;5014167;28;20028;-77
2020/12/06 00:37:59;;;;;;;88.70;36.55;;;-1.50;99.90;;;;;;5031420;28;20394;-77
2020/12/06 00:40:25;;;;;;;81.50;36.22;;;-1.50;99.90;;;;;;5031409;28;20490;-77
2020/12/06 00:42:50;;;;;;;75.05;33.60;;;-1.50;99.90;;;;;;5031820;28;20026;-77
2020/12/06 00:45:16;;;;;;;75.97;34.65;;;-1.50;99.90;;;;;;5031503;28;20021;-77
2020/12/06 00:47:41;;;;;;;89.70;39.40;;;-1.50;99.90;;;;;;5031393;28;20427;-77
2020/12/06 00:50:07;;;;;;;95.68;39.72;;;-1.40;99.90;;;;;;5031447;28;20033;-77
2020/12/06 00:52:33;;;;;;;90.85;38.58;;;-1.50;99.90;;;;;;5013381;28;20425;-77
2020/12/06 00:54:59;;;;;;;83.22;36.30;;;-1.40;99.90;;;;;;5013196;28;20117;-77
2020/12/06 00:57:24;;;;;;;88.25;37.95;;;-1.40;99.90;;;;;;5030805;28;20104;-77
2020/12/06 00:59:50;;;;;;;89.03;38.72;;;-1.40;99.90;;;;;;5030766;28;20079;-77
2020/12/06 01:02:16;;;;;;;89.63;36.63;;;-1.40;99.90;;;;;;5030759;28;20038;-77
2020/12/06 01:04:43;;;;;;;82.90;36.92;;;-1.40;99.90;;;;;;5030697;28;20104;-77
2020/12/06 01:07:09;;;;;;;84.28;37.85;;;-1.40;99.90;;;;;;5030604;28;20401;-77
2020/12/06 01:09:34;;;;;;;88.15;37.45;;;-1.40;99.90;;;;;;5012861;28;20108;-77
2020/12/06 01:12:00;;;;;;;86.32;36.83;;;-1.40;99.90;;;;;;5012898;28;20061;-77
2020/12/06 01:14:25;;;;;;;78.65;35.15;;;-1.40;99.90;;;;;;5030581;28;20031;-77
2020/12/06 01:16:51;;;;;;;89.85;36.95;;;-1.40;99.90;;;;;;5012797;28;20071;-77
2020/12/06 01:19:18;;;;;;;77.43;35.53;;;-1.40;99.90;;;;;;5012760;28;20487;-77
2020/12/06 01:21:51;;;;;;;82.50;35.60;;;-1.30;99.90;;;;;;5030300;28;20051;-77
2020/12/06 01:24:16;;;;;;;;;;;-1.30;99.90;;;;;;5012938;28;20033;-77
2020/12/06 01:26:45;;;;;;;75.43;33.13;;;-1.30;99.90;;;;;;5012428;28;19908;-77
2020/12/06 01:29:11;;;;;;;81.63;35.42;;;-1.30;99.90;;;;;;5030177;28;20038;-77
2020/12/06 01:31:36;;;;;;;85.07;34.88;;;-1.20;99.90;;;;;;5030170;28;20029;-77
2020/12/06 01:34:02;;;;;;;83.80;36.25;;;-1.20;99.90;;;;;;5030301;28;20033;-77
2020/12/06 01:36:27;;;;;;;83.57;37.67;;;-1.30;99.90;;;;;;5012345;28;20029;-77
2020/12/06 01:38:53;;;;;;;73.22;35.40;;;-1.20;99.90;;;;;;5030192;28;20021;-77
2020/12/06 01:41:19;;;;;;;77.20;34.42;;;-1.30;99.90;;;;;;5012416;28;20121;-77
2020/12/06 01:43:58;;;;;;;80.03;37.05;;;-1.30;99.90;;;;;;5029976;28;20080;-77
2020/12/06 01:46:24;;;;;;;73.25;32.83;;;-1.30;99.90;;;;;;5011920;28;20512;-77
2020/12/06 01:48:52;;;;;;;81.82;37.22;;;-1.40;99.90;;;;;;5012125;28;20128;-77
2020/12/06 01:51:19;;;;;;;83.03;36.15;;;-1.40;99.90;;;;;;5029826;28;20550;-77
2020/12/06 01:53:48;;;;;;;81.75;34.17;;;-1.40;99.90;;;;;;5012147;28;20024;-77
2020/12/06 01:56:14;;;;;;;79.03;36.13;;;-1.40;99.90;;;;;;5055223;22;20093;-75
2020/12/06 01:58:40;;;;;;;70.32;32.90;;;-1.40;99.90;;;;;;5049839;28;20104;-75
2020/12/06 02:01:08;;;;;;;79.13;37.65;;;-1.40;99.90;;;;;;5031939;28;20028;-75
2020/12/06 02:03:33;;;;;;;74.78;34.22;;;-1.40;99.90;;;;;;5049784;28;20017;-75
2020/12/06 02:05:59;;;;;;;81.00;33.97;;;-1.30;99.90;;;;;;5031532;28;20036;-75
2020/12/06 02:08:25;;;;;;;84.97;35.03;;;-1.30;99.90;;;;;;5032285;28;20112;-75
2020/12/06 02:10:50;;;;;;;74.38;32.85;;;-1.30;99.90;;;;;;5031712;28;20025;-75
2020/12/06 02:13:19;;;;;;;78.15;35.33;;;-1.30;99.90;;;;;;5031687;28;20024;-75
2020/12/06 02:15:45;;;;;;;83.22;35.42;;;-1.40;99.90;;;;;;5049368;28;20017;-74
2020/12/06 02:18:10;;;;;;;72.72;34.78;;;-1.40;99.90;;;;;;5031567;28;20021;-75
2020/12/06 02:20:36;;;;;;;77.88;34.25;;;-1.40;99.90;;;;;;5049654;28;20487;-75
2020/12/06 02:23:01;;;;;;;76.72;34.58;;;-1.40;99.90;;;;;;5049228;28;20544;-75
2020/12/06 02:25:27;;;;;;;78.65;34.60;;;-1.40;99.90;;;;;;5031550;28;20125;-75
2020/12/06 02:27:52;;;;;;;80.32;34.40;;;-1.40;99.90;;;;;;5049194;28;20501;-75
2020/12/06 02:30:18;;;;;;;81.57;36.72;;;-1.40;99.90;;;;;;5049260;28;20415;-75
2020/12/06 02:32:44;;;;;;;80.47;36.25;;;-1.40;99.90;;;;;;5049294;28;20028;-74
2020/12/06 02:35:10;;;;;;;70.53;32.53;;;-1.40;99.90;;;;;;5049202;28;20025;-75
2020/12/06 02:37:35;;;;;;;77.75;36.45;;;-1.40;99.90;;;;;;5049229;28;20427;-75
2020/12/06 02:40:01;;;;;;;77.13;32.95;;;-1.40;99.90;;;;;;5049218;28;20028;-75
2020/12/06 02:42:26;;;;;;;76.47;35.58;;;-1.40;99.90;;;;;;5049457;28;20025;-75
2020/12/06 02:44:52;;;;;;;81.57;35.22;;;-1.40;99.90;;;;;;5049155;28;20024;-75
2020/12/06 02:47:17;;;;;;;80.20;35.70;;;-1.40;99.90;;;;;;5031276;28;20493;-75
2020/12/06 02:49:43;;;;;;;82.90;36.83;;;-1.40;99.90;;;;;;5049214;28;20107;-75
2020/12/06 02:52:10;;;;;;;77.82;33.03;;;-1.30;99.90;;;;;;5031300;28;20029;-75
2020/12/06 02:54:36;;;;;;;79.80;35.58;;;-1.20;99.90;;;;;;5031239;28;20036;-75
2020/12/06 02:57:03;;;;;;;79.78;34.80;;;-1.20;99.90;;;;;;5048851;28;20036;-75
2020/12/06 02:59:28;;;;;;;78.45;33.90;;;-1.10;99.90;;;;;;5048915;28;20048;-75
2020/12/06 03:01:54;;;;;;;85.55;36.88;;;-1.00;99.90;;;;;;5031130;28;20021;-75
2020/12/06 03:04:19;;;;;;;79.22;34.53;;;-0.90;99.90;;;;;;5031200;28;20143;-75
2020/12/06 03:06:45;;;;;;;76.15;33.03;;;-0.90;99.90;;;;;;5030985;28;20054;-75
2020/12/06 03:09:10;;;;;;;80.38;35.63;;;-0.90;99.90;;;;;;5050777;28;20017;-75
2020/12/06 03:11:36;;;;;;;79.35;34.05;;;-0.90;99.90;;;;;;5053049;28;20027;-75
2020/12/06 03:14:01;;;;;;;75.82;34.25;;;-0.90;99.90;;;;;;5034929;28;20053;-75
2020/12/06 03:16:27;;;;;;;79.55;34.33;;;-0.90;99.90;;;;;;5034704;28;20028;-75
2020/12/06 03:18:52;;;;;;;79.70;34.83;;;-1.00;99.90;;;;;;5034805;28;20035;-75
2020/12/06 03:21:18;;;;;;;76.88;35.58;;;-0.90;99.90;;;;;;5034719;28;20060;-75
2020/12/06 03:23:43;;;;;;;74.00;36.42;;;-0.90;99.90;;;;;;5052539;28;20456;-75
2020/12/06 03:26:09;;;;;;;76.82;37.03;;;-0.90;99.90;;;;;;5034566;28;20029;-75
2020/12/06 03:28:34;;;;;;;80.00;36.60;;;-0.80;99.90;;;;;;5052536;28;20471;-75
2020/12/06 03:31:00;;;;;;;73.85;35.25;;;-0.80;99.90;;;;;;5034510;28;20020;-75
2020/12/06 03:33:25;;;;;;;80.03;36.15;;;-0.80;99.90;;;;;;5052661;28;20100;-75
2020/12/06 03:35:51;;;;;;;75.65;34.85;;;-0.80;99.90;;;;;;5052348;28;20402;-75
2020/12/06 03:38:17;;;;;;;76.47;36.65;;;-0.60;99.90;;;;;;5052173;28;20067;-75
2020/12/06 03:40:42;;;;;;;73.80;33.85;;;-0.60;99.90;;;;;;5052271;28;20458;-75
2020/12/06 03:43:08;;;;;;;77.97;35.88;;;-0.60;99.90;;;;;;5052199;28;20055;-75
2020/12/06 03:45:33;;;;;;;72.97;35.45;;;-0.60;99.90;;;;;;5052092;28;20021;-75
2020/12/06 03:47:59;;;;;;;81.50;35.80;;;-0.60;99.90;;;;;;5034115;28;20062;-75
2020/12/06 03:50:25;;;;;;;78.55;36.22;;;-0.60;99.90;;;;;;5052018;28;20112;-75
2020/12/06 03:52:51;;;;;;;79.43;36.08;;;-0.70;99.90;;;;;;5052569;28;20394;-75
2020/12/06 03:55:17;;;;;;;73.13;34.30;;;-0.70;99.90;;;;;;5051987;28;20028;-75
2020/12/06 03:57:43;;;;;;;79.15;34.60;;;-0.70;99.90;;;;;;5051846;28;20163;-75
2020/12/06 04:00:09;;;;;;;75.85;35.67;;;-0.70;99.90;;;;;;5052166;28;20060;-75
2020/12/06 04:02:34;;;;;;;78.55;37.38;;;-0.60;99.90;;;;;;5052159;28;20104;-76
2020/12/06 04:05:00;;;;;;;73.63;33.92;;;-0.60;99.90;;;;;;5052142;28;20111;-75
2020/12/06 04:07:25;;;;;;;67.43;33.45;;;-0.60;99.90;;;;;;5034046;28;20112;-75
2020/12/06 04:09:51;;;;;;;76.50;32.90;;;-0.70;99.90;;;;;;5034384;28;20021;-75
2020/12/06 04:12:16;;;;;;;71.55;32.33;;;-0.80;99.90;;;;;;5052567;28;20419;-75
2020/12/06 04:14:42;;;;;;;74.20;34.20;;;-0.80;99.90;;;;;;5052341;28;20389;-75
2020/12/06 04:17:08;;;;;;;71.80;32.00;;;-0.80;99.90;;;;;;5034008;28;20071;-75
2020/12/06 04:19:33;;;;;;;77.63;32.97;;;-0.80;99.90;;;;;;5051488;28;20025;-75
2020/12/06 04:21:59;;;;;;;69.35;31.65;;;-0.80;99.90;;;;;;5033887;28;20482;-74
2020/12/06 04:24:24;;;;;;;74.18;33.28;;;-0.90;99.90;;;;;;5033794;28;20127;-75
2020/12/06 04:26:50;;;;;;;72.82;33.75;;;-1.00;99.90;;;;;;5052250;28;20056;-75
2020/12/06 04:29:15;;;;;;;75.00;32.70;;;-1.00;99.90;;;;;;5051493;28;20076;-75
2020/12/06 04:31:41;;;;;;;88.55;39.38;;;-0.90;99.90;;;;;;5051329;28;20497;-75
2020/12/06 04:34:06;;;;;;;85.68;37.53;;;-0.80;99.90;;;;;;5051603;28;20021;-75
2020/12/06 04:36:32;;;;;;;89.05;38.92;;;-0.70;99.90;;;;;;5051201;28;20029;-75
2020/12/06 04:38:58;;;;;;;84.00;38.78;;;-0.70;99.90;;;;;;5033270;28;20025;-75
2020/12/06 04:41:25;;;;;;;97.13;41.40;;;-0.70;99.90;;;;;;5051329;28;20163;-75
2020/12/06 04:43:51;;;;;;;100.60;42.65;;;-0.70;99.90;;;;;;5050995;28;20029;-75
2020/12/06 04:46:18;;;;;;;98.25;41.97;;;-0.70;99.90;;;;;;5032878;28;20120;-75
2020/12/06 04:49:04;;;;;;;93.32;39.83;;;-0.70;99.90;;;;;;5051128;28;20033;-75
2020/12/06 04:51:38;;;;;;;96.88;42.03;;;-0.70;99.90;;;;;;5050907;28;20098;-75
2020/12/06 04:54:05;;;;;;;101.28;43.28;;;-0.70;99.90;;;;;;5033013;28;20028;-75
2020/12/06 04:56:31;;;;;;;100.30;43.83;;;-0.50;99.90;;;;;;5050823;28;20033;-75
2020/12/06 04:59:02;;;;;;;112.55;48.13;;;-0.40;99.90;;;;;;5032923;28;20025;-75
2020/12/06 05:01:35;;;;;;;111.25;47.38;;;-0.40;99.90;;;;;;5032872;28;20035;-76
2020/12/06 05:04:13;;;;;;;104.70;43.13;;;-0.30;99.90;;;;;;5050883;28;20114;-75
2020/12/06 05:06:40;;;;;;;100.38;42.22;;;-0.20;99.90;;;;;;5050719;28;20029;-75
2020/12/06 05:09:14;;;;;;;100.65;43.97;;;-0.10;99.90;;;;;;5050871;28;20505;-75
2020/12/06 05:11:42;;;;;;;100.40;42.28;;;-0.10;99.90;;;;;;5051192;28;20033;-75
2020/12/06 05:14:07;;;;;;;92.68;41.63;;;-0.10;99.90;;;;;;5033077;28;20479;-75
2020/12/06 05:16:40;;;;;;;97.38;39.72;;;0.00;99.90;;;;;;5052619;28;20033;-76
2020/12/06 05:19:11;;;;;;;88.55;38.90;;;0.00;99.90;;;;;;5053994;28;20031;-75
2020/12/06 05:21:38;;;;;;;81.55;37.47;;;0.00;99.90;;;;;;5051985;28;20561;-75
2020/12/06 05:24:05;;;;;;;86.53;35.90;;;-0.10;99.90;;;;;;5032580;28;20025;-75
2020/12/06 05:26:31;;;;;;;78.07;34.92;;;0.00;99.90;;;;;;5032237;28;20075;-76
2020/12/06 05:28:58;;;;;;;74.22;34.70;;;0.10;99.90;;;;;;5032410;28;20051;-76
2020/12/06 05:31:25;;;;;;;78.28;36.97;;;0.10;99.90;;;;;;5049828;28;20067;-76
2020/12/06 05:33:51;;;;;;;78.25;35.40;;;0.10;99.90;;;;;;5050100;28;20092;-76
2020/12/06 05:36:16;;;;;;;86.22;38.25;;;0.10;99.90;;;;;;5032451;28;20025;-76
2020/12/06 05:38:42;;;;;;;77.93;37.72;;;0.10;99.90;;;;;;5050816;28;20029;-75
2020/12/06 05:41:08;;;;;;;84.55;36.78;;;0.10;99.90;;;;;;5050438;28;20035;-75
2020/12/06 05:43:35;;;;;;;75.05;35.33;;;0.00;99.90;;;;;;5032270;28;20025;-75
2020/12/06 05:46:14;;;;;;;90.93;39.70;;;-0.10;99.90;;;;;;5031925;28;20025;-76
2020/12/06 05:48:41;;;;;;;75.65;35.92;;;-0.10;99.90;;;;;;5032053;28;20035;-75
2020/12/06 05:51:07;;;;;;;76.40;35.17;;;-0.20;99.90;;;;;;5031964;28;20074;-75
2020/12/06 05:53:34;;;;;;;75.13;36.22;;;-0.10;99.90;;;;;;5049814;28;20029;-75
2020/12/06 05:56:13;;;;;;;84.38;35.65;;;-0.20;99.90;;;;;;5031754;28;20375;-77
2020/12/06 05:58:44;;;;;;;70.47;33.28;;;-0.20;99.90;;;;;;5050020;28;20514;-75
2020/12/06 06:01:15;;;;;;;82.80;35.90;;;-0.20;99.90;;;;;;5049685;28;20111;-75
2020/12/06 06:03:43;;;;;;;76.45;36.50;;;-0.10;99.90;;;;;;5049701;28;20021;-75
2020/12/06 06:06:19;;;;;;;77.38;35.83;;;0.00;99.90;;;;;;5049574;28;20052;-76
2020/12/06 06:08:48;;;;;;;72.65;34.58;;;0.10;99.90;;;;;;5049605;28;20397;-75
2020/12/06 06:11:23;;;;;;;78.60;37.03;;;0.10;99.90;;;;;;5031641;28;20116;-75
2020/12/06 06:13:57;;;;;;;81.35;35.55;;;0.10;99.90;;;;;;5031700;28;20025;-74
2020/12/06 06:16:25;;;;;;;77.95;35.85;;;0.10;99.90;;;;;;5031946;28;20108;-76
2020/12/06 06:18:51;;;;;;;88.18;35.85;;;0.20;99.90;;;;;;5049242;28;20405;-75
2020/12/06 06:21:27;;;;;;;76.30;36.53;;;0.20;99.90;;;;;;5049501;28;20024;-76
2020/12/06 06:23:54;;;;;;;81.50;36.17;;;0.30;99.90;;;;;;5031542;28;20031;-75
2020/12/06 06:26:24;;;;;;;81.97;36.67;;;0.20;99.90;;;;;;5049552;28;20025;-76
2020/12/06 06:28:52;;;;;;;77.55;36.35;;;0.20;99.90;;;;;;5031619;28;20022;-76
2020/12/06 06:31:20;;;;;;;151.23;69.82;;;0.20;99.90;;;;;;5049698;28;20025;-75
2020/12/06 06:33:46;;;;;;;96.80;46.22;;;0.10;99.90;;;;;;5049167;28;20024;-75
2020/12/06 06:36:12;;;;;;;66.78;34.67;;;0.10;99.90;;;;;;5031305;28;20024;-76
2020/12/06 06:38:40;;;;;;;79.07;38.15;;;0.10;99.90;;;;;;5049300;28;20033;-76
2020/12/06 06:41:07;;;;;;;71.38;34.28;;;0.20;99.90;;;;;;5049211;28;20045;-76
2020/12/06 06:43:39;;;;;;;73.00;34.70;;;0.30;99.90;;;;;;5051224;28;20036;-75
2020/12/06 06:46:18;;;;;;;71.75;33.40;;;0.40;99.90;;;;;;5053191;28;20072;-75
2020/12/06 06:48:46;;;;;;;81.10;36.88;;;0.40;99.90;;;;;;5053742;28;20044;-76
2020/12/06 06:51:18;;;;;;;91.35;41.40;;;0.40;99.90;;;;;;5053238;28;20028;-75
2020/12/06 06:53:44;;;;;;;;;;;0.50;99.90;;;;;;5035854;28;20393;-75
2020/12/06 06:56:10;;;;;;;82.35;36.60;;;0.60;99.90;;;;;;5053004;28;19905;-76
2020/12/06 06:58:36;;;;;;;77.60;38.38;;;0.60;99.90;;;;;;5053241;28;20111;-75
2020/12/06 07:01:14;;;;;;;77.53;35.40;;;0.60;99.90;;;;;;5053097;28;20033;-76
2020/12/06 07:03:51;;;;;;;79.72;38.58;;;0.60;99.90;;;;;;5053290;28;20051;-76
2020/12/06 07:06:49;;;;;;;82.10;38.30;;;0.70;99.90;;;;;;5052728;28;20371;-76
2020/12/06 07:09:21;;;;;;;79.30;37.90;;;0.80;99.90;;;;;;5034886;28;20040;-76
2020/12/06 07:11:47;;;;;;;78.88;34.03;;;1.00;99.90;;;;;;5053293;28;20025;-76
2020/12/06 07:14:13;;;;;;;64.13;32.40;;;1.40;99.90;;;;;;5053015;28;20397;-76
2020/12/06 07:16:38;;;;;;;64.68;30.13;;;1.60;99.90;;;;;;5053063;28;20033;-77
2020/12/06 07:19:04;;;;;;;49.80;26.45;;;1.80;99.90;;;;;;5035056;28;20543;-76
2020/12/06 07:21:34;;;;;;;55.08;26.42;;;1.90;99.90;;;;;;5052700;28;20056;-76
2020/12/06 07:24:01;;;;;;;46.47;24.67;;;2.10;99.90;;;;;;5052784;28;20025;-76
2020/12/06 07:26:27;;;;;;;43.72;24.90;;;2.30;99.90;;;;;;5035196;28;20024;-76
2020/12/06 07:28:53;;;;;;;40.75;22.80;;;2.40;99.90;;;;;;5034668;28;20021;-76
2020/12/06 07:31:19;;;;;;;41.08;22.13;;;2.50;99.90;;;;;;5052552;28;20025;-76
2020/12/06 07:33:45;;;;;;;43.50;21.92;;;2.50;99.90;;;;;;5052418;28;20071;-76
2020/12/06 07:36:10;;;;;;;40.38;22.48;;;2.50;99.90;;;;;;5034609;28;20025;-77
2020/12/06 07:38:36;;;;;;;37.90;22.05;;;2.50;99.90;;;;;;5052823;28;20029;-76
2020/12/06 07:41:03;;;;;;;38.70;22.33;;;2.50;99.90;;;;;;5034687;28;20025;-77
2020/12/06 07:43:33;;;;;;;38.90;22.02;;;2.50;99.90;;;;;;5034493;28;20036;-76
2020/12/06 07:46:15;;;;;;;34.17;19.33;;;2.60;99.90;;;;;;5052235;28;20063;-75
2020/12/06 07:48:41;;;;;;;;;;;2.70;99.90;;;;;;5034683;28;20028;-76
2020/12/06 07:51:07;;;;;;;35.72;17.65;;;2.90;99.90;;;;;;5052093;28;19995;-75
2020/12/06 07:53:49;;;;;;;31.23;18.10;;;3.10;99.90;;;;;;5052111;28;20448;-75
2020/12/06 07:56:22;;;;;;;35.38;17.80;;;3.20;99.90;;;;;;5051327;28;20456;-75
2020/12/06 07:59:06;;;;;;;30.23;17.20;;;3.30;99.90;;;;;;5068554;22;20049;-77
2020/12/06 08:01:32;;;;;;;27.63;16.63;;;3.40;99.90;;;;;;5034953;28;20111;-76
2020/12/06 08:03:59;;;;;;;31.52;17.25;;;3.50;99.90;;;;;;5035024;28;20029;-76
2020/12/06 08:06:27;;;;;;;32.60;17.13;;;3.50;99.90;;;;;;5034652;28;20444;-76
2020/12/06 08:08:59;;;;;;;26.73;16.83;;;3.60;99.90;;;;;;5034591;28;20028;-76
2020/12/06 08:11:46;;;;;;;29.75;16.50;;;3.50;99.90;;;;;;5034498;28;20028;-76
2020/12/06 08:14:18;;;;;;;26.50;14.65;;;3.60;99.90;;;;;;5034527;28;20030;-76
2020/12/06 08:17:00;;;;;;;30.73;16.33;;;3.60;99.90;;;;;;5034595;28;20029;-76
2020/12/06 08:19:27;;;;;;;31.73;16.73;;;3.60;99.90;;;;;;5044796;28;20036;-76
2020/12/06 08:21:59;;;;;;;30.90;17.20;;;3.70;99.90;;;;;;5047980;28;20021;-76
2020/12/06 08:24:25;;;;;;;29.23;16.47;;;3.70;99.90;;;;;;5064841;28;20032;-76
2020/12/06 08:26:52;;;;;;;26.02;16.90;;;3.70;99.90;;;;;;5059975;28;20029;-76
2020/12/06 08:29:18;;;;;;;30.00;18.50;;;3.80;99.90;;;;;;5040689;28;20021;-76
2020/12/06 08:31:45;;;;;;;29.10;16.88;;;3.90;99.90;;;;;;5037687;28;20025;-76
2020/12/06 08:34:16;;;;;;;26.25;15.52;;;3.90;99.90;;;;;;5053329;28;20024;-76
2020/12/06 08:36:42;;;;;;;30.45;16.27;;;3.90;99.90;;;;;;5035020;28;20047;-76
2020/12/06 08:39:22;;;;;;;24.75;14.25;;;3.90;99.90;;;;;;5034725;28;20055;-76
2020/12/06 08:41:49;;;;;;;27.45;15.85;;;4.00;99.90;;;;;;5034275;28;20068;-76
2020/12/06 08:44:15;;;;;;;22.45;14.30;;;4.10;99.90;;;;;;5052047;28;20037;-76
2020/12/06 08:46:52;;;;;;;24.63;14.15;;;4.20;99.90;;;;;;5033939;28;20028;-76
2020/12/06 08:49:19;;;;;;;22.15;13.40;;;4.40;99.90;;;;;;5033506;28;20025;-76
2020/12/06 08:51:52;;;;;;;31.58;17.80;;;4.40;99.90;;;;;;5051475;28;20075;-76
2020/12/06 08:54:34;;;;;;;32.67;19.65;;;4.40;99.90;;;;;;5033345;28;20021;-76
2020/12/06 08:57:09;;;;;;;34.15;18.80;;;4.30;99.90;;;;;;5050761;28;20067;-76
2020/12/06 08:59:39;;;;;;;35.88;19.83;;;4.20;99.90;;;;;;5033223;28;20039;-76
2020/12/06 09:02:05;;;;;;;34.88;21.10;;;4.20;99.90;;;;;;5033091;28;20037;-76
2020/12/06 09:04:36;;;;;;;35.72;19.42;;;4.10;99.90;;;;;;5050798;28;20049;-76
2020/12/06 09:07:05;;;;;;;30.35;18.67;;;4.10;99.90;;;;;;5031953;28;20071;-76
2020/12/06 09:09:31;;;;;;;30.48;18.48;;;4.10;99.90;;;;;;5034073;28;20425;-76
2020/12/06 09:11:57;;;;;;;32.80;19.20;;;4.10;99.90;;;;;;5033112;28;20437;-76
2020/12/06 09:14:24;;;;;;;31.63;19.25;;;4.10;99.90;;;;;;5032856;28;20021;-76
2020/12/06 09:16:50;;;;;;;30.05;18.95;;;4.10;99.90;;;;;;5032850;28;20031;-76
2020/12/06 09:19:15;;;;;;;31.77;19.25;;;4.10;99.90;;;;;;5032857;28;20025;-76
2020/12/06 09:21:41;;;;;;;33.72;21.55;;;4.10;99.90;;;;;;5050864;28;20441;-76
2020/12/06 09:24:07;;;;;;;36.47;21.30;;;4.00;99.90;;;;;;5050759;28;20025;-76
2020/12/06 09:26:32;;;;;;;36.58;21.65;;;3.80;99.90;;;;;;5050780;28;20058;-76
2020/12/06 09:28:58;;;;;;;36.10;21.60;;;3.60;99.90;;;;;;5050887;28;20017;-76
2020/12/06 09:31:24;;;;;;;40.92;23.17;;;3.40;99.90;;;;;;5033101;28;20033;-76
2020/12/06 09:33:50;;;;;;;41.00;23.08;;;3.30;99.90;;;;;;5032708;28;20377;-75
2020/12/06 09:36:16;;;;;;;41.20;23.52;;;3.30;99.90;;;;;;5032507;28;20571;-76
2020/12/06 09:38:42;;;;;;;52.03;28.85;;;3.30;99.90;;;;;;5050320;28;20036;-76
2020/12/06 09:41:11;;;;;;;44.67;25.00;;;3.40;99.90;;;;;;5050253;28;20401;-76
2020/12/06 09:43:37;;;;;;;49.53;25.60;;;3.60;99.90;;;;;;5049958;28;20024;-75
2020/12/06 09:46:02;;;;;;;44.70;24.02;;;4.00;99.90;;;;;;5049816;28;20036;-75
2020/12/06 09:48:28;;;;;;;47.35;25.45;;;4.20;99.90;;;;;;5032033;28;20031;-75
2020/12/06 09:50:54;;;;;;;50.28;26.00;;;4.30;99.90;;;;;;5032172;28;20095;-75
2020/12/06 09:53:19;;;;;;;53.75;25.75;;;4.10;99.90;;;;;;5049866;28;20386;-75
2020/12/06 09:55:45;;;;;;;55.40;27.85;;;4.00;99.90;;;;;;5032034;28;20475;-76
2020/12/06 09:58:10;;;;;;;62.72;27.55;;;3.70;99.90;;;;;;5049482;28;20063;-75
2020/12/06 10:00:36;;;;;;;56.17;27.52;;;3.60;99.90;;;;;;5049705;28;20021;-75
2020/12/06 10:03:02;;;;;;;65.32;28.38;;;3.50;99.90;;;;;;5049824;28;20029;-75
2020/12/06 10:05:28;;;;;;;58.65;25.90;;;3.40;99.90;;;;;;5049655;28;20513;-75
2020/12/06 10:07:53;;;;;;;66.60;29.10;;;3.50;99.90;;;;;;5031658;28;20029;-76
2020/12/06 10:10:19;;;;;;;65.35;25.65;;;3.50;99.90;;;;;;5049682;28;20025;-76
2020/12/06 10:12:44;;;;;;;59.40;24.98;;;3.50;99.90;;;;;;5049440;28;20017;-75
2020/12/06 10:15:10;;;;;;;74.90;28.45;;;3.50;99.90;;;;;;5032071;28;20021;-75
2020/12/06 10:17:38;;;;;;;60.75;24.38;;;3.40;99.90;;;;;;5031596;28;20482;-75
2020/12/06 10:20:06;;;;;;;69.65;25.42;;;3.40;99.90;;;;;;5050257;28;20111;-74
2020/12/06 10:22:31;;;;;;;70.50;25.35;;;3.40;99.90;;;;;;5032322;28;20032;-74
2020/12/06 10:24:57;;;;;;;73.07;26.15;;;3.50;99.90;;;;;;5032256;28;20432;-75
2020/12/06 10:27:22;;;;;;;64.90;25.05;;;3.50;99.90;;;;;;5033618;28;20028;-75
2020/12/06 10:29:48;;;;;;;67.30;24.25;;;3.60;99.90;;;;;;5032556;28;20032;-75
2020/12/06 10:32:13;;;;;;;69.65;23.55;;;3.80;99.90;;;;;;5032580;28;20025;-74
2020/12/06 10:34:39;;;;;;;60.97;24.92;;;4.00;99.90;;;;;;5050637;28;20054;-74
2020/12/06 10:37:04;;;;;;;67.63;24.80;;;4.10;99.90;;;;;;5049695;28;20036;-74
2020/12/06 10:39:30;;;;;;;63.35;23.38;;;4.20;99.90;;;;;;5031871;28;20025;-74
2020/12/06 10:41:57;;;;;;;65.30;24.58;;;4.20;99.90;;;;;;5031457;28;20032;-74
2020/12/06 10:44:25;;;;;;;63.05;23.52;;;4.30;99.90;;;;;;5049784;28;20390;-75
2020/12/06 10:46:52;;;;;;;63.35;23.42;;;4.40;99.90;;;;;;5031383;28;20042;-75
2020/12/06 10:49:18;;;;;;;59.67;21.00;;;4.50;99.90;;;;;;5049416;28;20482;-75
2020/12/06 10:51:45;;;;;;;63.55;23.20;;;4.50;99.90;;;;;;5049687;28;20028;-75
2020/12/06 10:54:11;;;;;;;56.40;22.40;;;4.60;99.90;;;;;;5049684;28;20100;-75
2020/12/06 10:56:37;;;;;;;53.88;21.95;;;4.60;99.90;;;;;;5049989;28;20036;-75
2020/12/06 10:59:03;;;;;;;57.65;22.20;;;4.70;99.90;;;;;;5031429;28;20417;-75
2020/12/06 11:01:31;;;;;;;51.28;22.27;;;4.80;99.90;;;;;;5049757;28;20025;-75
2020/12/06 11:03:57;;;;;;;51.17;19.63;;;5.30;99.90;;;;;;5034145;28;20029;-75
2020/12/06 11:06:23;;;;;;;48.70;21.23;;;6.20;99.90;;;;;;5049415;28;20025;-75
2020/12/06 11:08:50;;;;;;;50.47;21.38;;;7.00;99.90;;;;;;5031508;28;20028;-75
2020/12/06 11:11:16;;;;;;;44.17;19.70;;;7.40;99.90;;;;;;5031535;28;20031;-75
2020/12/06 11:13:42;;;;;;;50.15;22.30;;;7.30;99.90;;;;;;5049315;28;20025;-75
2020/12/06 11:16:08;;;;;;;53.00;21.17;;;7.10;99.90;;;;;;5031066;28;20389;-75
2020/12/06 11:18:34;;;;;;;41.13;18.90;;;6.90;99.90;;;;;;5030944;28;20029;-75
2020/12/06 11:21:00;;;;;;;48.20;21.63;;;7.10;99.90;;;;;;5031210;28;20166;-75
2020/12/06 11:23:26;;;;;;;40.40;19.38;;;7.40;99.90;;;;;;5048900;28;20021;-75
2020/12/06 11:25:52;;;;;;;38.90;19.40;;;8.20;99.90;;;;;;5030883;28;20031;-75
2020/12/06 11:28:18;;;;;;;39.78;21.45;;;9.20;99.90;;;;;;5030914;28;20060;-75
2020/12/06 11:30:44;;;;;;;38.03;19.58;;;10.40;99.90;;;;;;5032963;28;20458;-75
2020/12/06 11:33:10;;;;;;;40.47;19.50;;;11.90;99.90;;;;;;5052361;28;20056;-75
2020/12/06 11:35:35;;;;;;;36.67;17.50;;;12.80;99.90;;;;;;5052318;28;20497;-75
2020/12/06 11:38:01;;;;;;;36.20;17.90;;;13.30;97.50;;;;;;5034380;28;20021;-76
2020/12/06 11:40:27;;;;;;;36.45;19.52;;;13.20;93.90;;;;;;5034425;28;20075;-75
2020/12/06 11:42:52;;;;;;;32.05;16.25;;;12.70;94.30;;;;;;5052284;28;20502;-75
2020/12/06 11:45:18;;;;;;;28.65;16.48;;;12.10;96.00;;;;;;5052434;28;20099;-75
2020/12/06 11:47:43;;;;;;;32.95;16.80;;;11.60;97.20;;;;;;5051927;28;20029;-76
2020/12/06 11:50:09;;;;;;;30.05;16.17;;;11.00;99.90;;;;;;5034232;28;20151;-75
2020/12/06 11:52:34;;;;;;;28.80;14.65;;;11.70;98.90;;;;;;5052194;28;20103;-75
2020/12/06 11:55:00;;;;;;;27.35;15.68;;;12.10;96.50;;;;;;5052076;28;20393;-76
2020/12/06 11:57:26;;;;;;;26.00;14.02;;;12.30;95.80;;;;;;5051955;28;20501;-75
2020/12/06 11:59:51;;;;;;;24.45;14.43;;;12.20;94.20;;;;;;5035358;28;20393;-75
2020/12/06 12:02:17;;;;;;;28.02;15.07;;;11.60;96.20;;;;;;5052609;28;20027;-75
2020/12/06 12:04:42;;;;;;;26.85;14.35;;;11.50;97.50;;;;;;5051806;28;20029;-76
2020/12/06 12:07:08;;;;;;;26.63;14.18;;;11.10;98.90;;;;;;5033933;28;20371;-75
2020/12/06 12:09:33;;;;;;;27.73;14.93;;;10.80;99.30;;;;;;5052094;28;20021;-76
2020/12/06 12:11:59;;;;;;;24.92;14.00;;;10.20;99.90;;;;;;5052226;28;20378;-75
2020/12/06 12:14:25;;;;;;;22.40;13.15;;;9.60;99.90;;;;;;5052196;28;20025;-75
2020/12/06 12:16:50;;;;;;;23.77;13.13;;;8.90;99.90;;;;;;5034109;28;20439;-76
2020/12/06 12:19:16;;;;;;;19.30;11.25;;;8.40;99.90;;;;;;5051897;28;20064;-76
2020/12/06 12:21:42;;;;;;;24.52;13.23;;;8.20;99.90;;;;;;5051906;28;20030;-75
2020/12/06 12:24:07;;;;;;;21.35;11.82;;;8.20;99.90;;;;;;5052046;28;20599;-76
2020/12/06 12:26:33;;;;;;;24.73;12.52;;;8.30;99.90;;;;;;5052400;28;20044;-75
2020/12/06 12:28:58;;;;;;;22.25;11.95;;;8.20;99.90;;;;;;5051737;28;20024;-76
2020/12/06 12:31:24;;;;;;;21.83;12.27;;;7.80;99.90;;;;;;5051687;28;20029;-75
2020/12/06 12:33:50;;;;;;;21.63;12.38;;;7.60;99.90;;;;;;5033962;28;20031;-75